Time;durP1;ratioP1;P1;durP2;ratioP2;P2;SDS_P1;SDS_P2;PMS_P1;PMS_P2;Temp;Humidity;BMP_temperature;BMP_pressure;BME280_temperature;BME280_humidity;BME280_pressure;Samples;Min_cycle;Max_cycle;Signal;HPM_P1;HPM_P2
2021/12/29 00:01:35;;;;;;;55.13;19.45;;;;;;;-8.43;68.67;100766.84;5068687;28;20024;-67
2021/12/29 00:04:00;;;;;;;57.08;21.80;;;;;;;-8.38;68.76;100796.34;5068913;28;20055;-66
2021/12/29 00:06:26;;;;;;;56.90;21.95;;;;;;;-8.46;69.32;100800.56;5070124;28;20367;-67
2021/12/29 00:08:52;;;;;;;63.47;21.58;;;;;;;-8.58;69.14;100792.63;5069619;28;20436;-64
2021/12/29 00:11:17;;;;;;;69.43;23.48;;;;;;;-8.66;69.12;100782.16;5070089;28;20531;-66
2021/12/29 00:13:43;;;;;;;65.47;20.48;;;;;;;-8.68;69.70;100797.72;5070617;28;20390;-65
2021/12/29 00:16:09;;;;;;;61.40;22.35;;;;;;;-8.61;69.05;100801.28;5069284;28;20036;-65
2021/12/29 00:18:35;;;;;;;58.67;22.98;;;;;;;-8.69;69.27;100803.75;5069427;28;20064;-65
2021/12/29 00:21:04;;;;;;;64.93;22.13;;;;;;;-8.71;69.21;100796.78;5070064;28;20063;-66
2021/12/29 00:23:29;;;;;;;60.60;23.25;;;;;;;-8.75;69.31;100797.59;5070322;28;20040;-63
2021/12/29 00:25:55;;;;;;;67.65;22.75;;;;;;;-8.81;69.32;100796.66;5069546;28;20029;-65
2021/12/29 00:28:21;;;;;;;61.15;22.27;;;;;;;-8.76;69.26;100790.66;5069347;28;20040;-66
2021/12/29 00:30:47;;;;;;;59.80;23.33;;;;;;;-8.91;69.51;100776.63;5069911;28;20028;-66
2021/12/29 00:33:12;;;;;;;57.78;22.35;;;;;;;-8.91;69.96;100787.00;5069991;28;20041;-64
2021/12/29 00:35:39;;;;;;;59.58;22.05;;;;;;;-8.95;69.77;100795.56;5069320;28;20199;-66
2021/12/29 00:38:06;;;;;;;66.75;22.85;;;;;;;-8.92;70.16;100798.25;5070975;28;20036;-65
2021/12/29 00:40:34;;;;;;;62.10;22.10;;;;;;;-8.93;70.27;100799.06;5073635;28;20036;-66
2021/12/29 00:43:00;;;;;;;53.70;19.65;;;;;;;-8.86;69.59;100790.53;5073792;28;20029;-63
2021/12/29 00:45:26;;;;;;;63.83;21.77;;;;;;;-8.92;69.29;100787.88;5073474;28;20114;-66
2021/12/29 00:47:53;;;;;;;53.80;21.00;;;;;;;-8.95;69.36;100780.00;5072570;28;20417;-66
2021/12/29 00:50:18;;;;;;;54.22;17.20;;;;;;;-8.88;68.72;100788.75;5073416;28;20105;-66
2021/12/29 00:52:45;;;;;;;52.95;19.77;;;;;;;-8.97;68.97;100786.91;5073630;28;20430;-66
2021/12/29 00:55:16;;;;;;;57.50;20.58;;;;;;;-9.00;69.59;100789.44;5073247;28;20029;-65
2021/12/29 00:57:42;;;;;;;57.35;20.52;;;;;;;-9.06;69.80;100794.56;5072751;28;20111;-65
2021/12/29 01:00:12;;;;;;;54.05;19.42;;;;;;;-9.06;69.67;100791.97;5071661;28;20191;-64
2021/12/29 01:02:38;;;;;;;54.45;19.00;;;;;;;-9.10;69.30;100791.91;5072817;28;20169;-63
2021/12/29 01:05:05;;;;;;;53.45;19.25;;;;;;;-9.13;69.39;100790.97;5072654;28;20123;-65
2021/12/29 01:07:31;;;;;;;53.35;19.00;;;;;;;-9.18;69.83;100796.09;5072573;28;20359;-64
2021/12/29 01:09:59;;;;;;;55.90;19.50;;;;;;;-9.17;69.11;100800.44;5072308;28;20039;-65
2021/12/29 01:12:25;;;;;;;50.53;18.52;;;;;;;-9.45;69.58;100757.63;5071702;28;20060;-65
2021/12/29 01:14:53;;;;;;;55.30;18.02;;;;;;;-9.28;69.57;100794.22;5071922;28;20033;-65
2021/12/29 01:17:19;;;;;;;54.55;18.55;;;;;;;-9.27;69.47;100801.16;5071623;28;20115;-64
2021/12/29 01:19:45;;;;;;;49.58;17.92;;;;;;;-9.30;69.27;100804.53;5072022;28;20039;-64
2021/12/29 01:22:11;;;;;;;51.53;18.17;;;;;;;-9.32;69.17;100795.00;5071946;28;20024;-66
2021/12/29 01:24:37;;;;;;;51.45;18.17;;;;;;;-9.47;69.43;100774.88;5072563;28;20029;-66
2021/12/29 01:27:03;;;;;;;50.35;18.65;;;;;;;-9.32;69.18;100797.59;5072547;28;20039;-67
2021/12/29 01:29:30;;;;;;;49.90;16.80;;;;;;;-9.37;69.21;100787.16;5072323;28;20032;-65
2021/12/29 01:31:57;;;;;;;50.90;16.95;;;;;;;-9.46;69.41;100787.84;5072313;28;20029;-64
2021/12/29 01:34:23;;;;;;;46.95;16.35;;;;;;;-9.44;69.75;100803.47;5072544;28;20086;-66
2021/12/29 01:36:49;;;;;;;48.55;15.90;;;;;;;-9.43;70.19;100781.88;5070324;28;20371;-64
2021/12/29 01:39:16;;;;;;;44.78;16.58;;;;;;;-9.27;70.05;100795.94;5072237;28;20123;-65
2021/12/29 01:41:43;;;;;;;50.75;16.23;;;;;;;-9.19;69.37;100791.75;5072532;28;20034;-64
2021/12/29 01:44:10;;;;;;;45.55;15.57;;;;;;;-9.03;69.21;100786.81;5071944;28;20041;-66
2021/12/29 01:46:38;;;;;;;46.72;15.52;;;;;;;-8.93;69.27;100799.06;5071750;28;20033;-64
2021/12/29 01:49:05;;;;;;;52.42;16.80;;;;;;;-8.83;68.93;100797.47;5071473;28;20044;-66
2021/12/29 01:51:31;;;;;;;47.67;16.27;;;;;;;-8.77;68.79;100799.31;5072049;28;20040;-64
2021/12/29 01:54:04;;;;;;;46.38;16.58;;;;;;;-8.83;68.91;100780.19;5071800;28;20054;-66
2021/12/29 01:56:31;;;;;;;43.53;15.07;;;;;;;-8.63;68.85;100799.50;5071992;28;20025;-63
2021/12/29 01:58:56;;;;;;;45.50;14.90;;;;;;;-8.58;68.99;100785.72;5072226;28;20094;-65
2021/12/29 02:01:23;;;;;;;46.60;15.13;;;;;;;-8.52;68.56;100783.19;5071471;28;20032;-66
2021/12/29 02:03:50;;;;;;;43.90;14.60;;;;;;;-8.44;68.00;100792.78;5071160;28;20115;-62
2021/12/29 02:06:15;;;;;;;41.90;14.25;;;;;;;-8.47;68.36;100793.63;5071626;28;20087;-66
2021/12/29 02:08:41;;;;;;;43.35;15.18;;;;;;;-8.45;68.37;100783.25;5072363;28;20033;-65
2021/12/29 02:11:07;;;;;;;41.13;15.20;;;;;;;-8.52;68.35;100782.34;5071445;28;20394;-65
2021/12/29 02:13:33;;;;;;;47.25;14.98;;;;;;;-8.56;68.04;100778.81;5071323;28;20080;-66
2021/12/29 02:15:59;;;;;;;36.83;14.45;;;;;;;-8.58;68.41;100795.22;5071947;28;20078;-65
2021/12/29 02:18:25;;;;;;;39.03;13.77;;;;;;;-8.58;69.34;100785.72;5072055;28;20028;-66
2021/12/29 02:20:54;;;;;;;42.00;14.68;;;;;;;-8.48;68.84;100791.00;5071445;28;20032;-65
2021/12/29 02:23:33;;;;;;;41.17;13.95;;;;;;;-8.38;68.30;100803.28;5071247;28;20036;-64
2021/12/29 02:25:59;;;;;;;41.70;14.20;;;;;;;-8.40;68.00;100799.78;5071980;28;20037;-65
2021/12/29 02:28:29;;;;;;;40.63;13.93;;;;;;;-8.39;68.14;100791.13;5071965;28;20036;-66
2021/12/29 02:30:55;;;;;;;38.40;14.00;;;;;;;-8.41;68.35;100804.09;5071014;28;20119;-65
2021/12/29 02:33:23;;;;;;;46.65;15.07;;;;;;;-8.44;68.67;100798.84;5071018;28;20059;-65
2021/12/29 02:35:49;;;;;;;52.65;17.35;;;;;;;-8.36;67.88;100806.75;5071384;28;20036;-65
2021/12/29 02:38:30;;;;;;;51.63;16.30;;;;;;;-8.39;68.03;100806.72;5071183;28;20466;-65
2021/12/29 02:41:00;;;;;;;49.97;16.52;;;;;;;-8.43;68.43;100799.75;5071071;28;20086;-65
2021/12/29 02:43:25;;;;;;;49.38;17.20;;;;;;;-8.46;68.04;100792.78;5069672;28;20032;-66
2021/12/29 02:45:58;;;;;;;51.95;17.38;;;;;;;-8.46;68.24;100789.28;5071039;28;20360;-64
2021/12/29 02:48:26;;;;;;;51.85;17.02;;;;;;;-8.47;67.75;100788.44;5070975;28;20048;-66
2021/12/29 02:50:55;;;;;;;37.42;12.40;;;;;;;-8.39;67.26;100781.59;5070787;28;20024;-64
2021/12/29 02:53:25;;;;;;;45.67;16.70;;;;;;;-8.45;67.85;100788.44;5070663;28;20032;-66
2021/12/29 02:55:53;;;;;;;57.38;17.00;;;;;;;-8.74;68.41;100752.63;5070832;28;20037;-65
2021/12/29 02:58:20;;;;;;;58.10;17.55;;;;;;;-8.67;68.04;100757.91;5070927;28;20115;-64
2021/12/29 03:00:46;;;;;;;59.03;17.13;;;;;;;-8.49;68.16;100784.09;5069323;28;20036;-64
2021/12/29 03:03:20;;;;;;;52.65;17.23;;;;;;;-8.51;68.10;100781.50;5070073;28;20032;-66
2021/12/29 03:05:47;;;;;;;58.00;16.77;;;;;;;-8.49;67.81;100768.50;5070349;28;20024;-66
2021/12/29 03:08:14;;;;;;;58.60;17.17;;;;;;;-8.49;68.26;100784.94;5070198;28;20062;-68
2021/12/29 03:10:40;;;;;;;55.95;17.92;;;;;;;-8.45;68.27;100778.94;5069909;28;20059;-66
2021/12/29 03:13:07;;;;;;;58.17;18.50;;;;;;;-8.37;67.74;100784.22;5070273;28;20025;-66
2021/12/29 03:15:34;;;;;;;60.78;18.77;;;;;;;-8.37;68.54;100786.84;5070587;28;20029;-66
2021/12/29 03:17:59;;;;;;;54.83;17.23;;;;;;;-8.26;67.91;100793.00;5070212;28;20047;-66
2021/12/29 03:20:25;;;;;;;54.25;16.98;;;;;;;-8.31;67.94;100781.69;5070426;28;20025;-65
2021/12/29 03:22:53;;;;;;;53.13;17.58;;;;;;;-8.31;68.34;100780.84;5069369;28;20439;-65
2021/12/29 03:25:18;;;;;;;54.28;17.02;;;;;;;-8.27;68.67;100780.88;5070310;28;20024;-64
2021/12/29 03:27:44;;;;;;;50.10;17.25;;;;;;;-8.17;68.23;100778.41;5070279;28;20035;-64
2021/12/29 03:30:10;;;;;;;63.20;19.23;;;;;;;-8.16;68.13;100762.81;5070524;28;20036;-65
2021/12/29 03:32:38;;;;;;;63.38;19.77;;;;;;;-8.17;67.92;100775.81;5070188;28;20024;-67
2021/12/29 03:35:04;;;;;;;63.03;19.13;;;;;;;-8.19;67.50;100769.72;5070052;28;20107;-65
2021/12/29 03:37:30;;;;;;;75.75;20.70;;;;;;;-8.07;66.13;100767.25;5071040;28;20033;-65
2021/12/29 03:39:55;;;;;;;70.72;21.73;;;;;;;-8.29;66.66;100769.59;5069442;28;20084;-65
2021/12/29 03:42:21;;;;;;;72.85;22.73;;;;;;;-8.47;66.90;100764.19;5069858;28;20047;-65
2021/12/29 03:44:46;;;;;;;72.18;22.48;;;;;;;-8.57;67.05;100764.09;5070489;28;20024;-65
2021/12/29 03:47:12;;;;;;;75.43;21.48;;;;;;;-8.61;66.80;100759.72;5069811;28;20087;-63
2021/12/29 03:49:37;;;;;;;69.90;20.35;;;;;;;-8.78;67.68;100771.59;5066213;28;20505;-65
2021/12/29 03:52:05;;;;;;;63.55;20.65;;;;;;;-8.83;67.95;100763.72;5069618;28;20027;-66
2021/12/29 03:54:31;;;;;;;60.35;18.95;;;;;;;-8.82;68.21;100776.75;5070791;28;20462;-63
2021/12/29 03:57:00;;;;;;;65.40;20.20;;;;;;;-8.82;67.62;100775.88;5068691;28;20055;-66
2021/12/29 03:59:27;;;;;;;70.00;19.38;;;;;;;-8.84;68.15;100769.78;5069396;28;20434;-65
2021/12/29 04:01:53;;;;;;;41.53;13.10;;;;;;;-8.84;67.86;100757.69;5069616;28;20033;-66
2021/12/29 04:04:19;;;;;;;57.95;18.30;;;;;;;-8.80;67.36;100763.78;5070366;28;20359;-65
2021/12/29 04:06:45;;;;;;;59.33;18.30;;;;;;;-8.85;67.64;100761.13;5069258;28;20486;-64
2021/12/29 04:09:10;;;;;;;58.08;18.40;;;;;;;-8.85;68.24;100768.91;5069493;28;20490;-67
2021/12/29 04:11:36;;;;;;;52.50;16.67;;;;;;;-8.80;68.37;100764.66;5069666;28;20036;-66
2021/12/29 04:14:01;;;;;;;49.30;16.80;;;;;;;-8.67;67.80;100764.84;5073600;28;20098;-63
2021/12/29 04:16:27;;;;;;;54.47;16.60;;;;;;;-8.70;68.18;100763.06;5074030;28;20064;-65
2021/12/29 04:19:06;;;;;;;60.95;17.95;;;;;;;-8.60;68.31;100765.78;5073123;28;20025;-63
2021/12/29 04:21:37;;;;;;;43.70;16.20;;;;;;;-8.48;68.24;100765.03;5073662;28;20032;-64
2021/12/29 04:24:04;;;;;;;46.25;15.95;;;;;;;-8.47;68.20;100756.38;5073926;28;20074;-64
2021/12/29 04:26:31;;;;;;;49.75;16.50;;;;;;;-8.36;67.71;100762.59;5073394;28;20056;-65
2021/12/29 04:28:57;;;;;;;55.55;16.73;;;;;;;-8.34;67.50;100747.91;5073166;28;20021;-65
2021/12/29 04:31:22;;;;;;;59.28;17.20;;;;;;;-8.32;67.41;100738.41;5073575;28;20591;-65
2021/12/29 04:33:49;;;;;;;56.33;17.55;;;;;;;-8.33;67.13;100734.06;5073653;28;20032;-65
2021/12/29 04:36:16;;;;;;;47.78;15.90;;;;;;;-8.32;67.21;100745.31;5073297;28;20032;-65
2021/12/29 04:38:41;;;;;;;54.72;17.88;;;;;;;-8.36;67.66;100734.88;5072969;28;20385;-65
2021/12/29 04:41:07;;;;;;;58.08;16.98;;;;;;;-8.31;67.49;100737.53;5073388;28;20028;-65
2021/12/29 04:43:32;;;;;;;53.40;16.15;;;;;;;-8.27;66.75;100738.47;5073551;28;20040;-64
2021/12/29 04:45:58;;;;;;;55.45;17.33;;;;;;;-8.42;66.97;100754.75;5073158;28;20032;-66
2021/12/29 04:48:25;;;;;;;55.08;18.90;;;;;;;-8.46;67.62;100753.81;5073174;28;20056;-65
2021/12/29 04:50:52;;;;;;;54.15;18.45;;;;;;;-8.54;67.47;100761.53;5073180;28;20035;-65
2021/12/29 04:53:20;;;;;;;66.13;20.13;;;;;;;-8.53;67.30;100752.91;5072896;28;20394;-65
2021/12/29 04:55:49;;;;;;;68.97;20.25;;;;;;;-8.56;66.58;100750.25;5072527;28;20052;-63
2021/12/29 04:58:16;;;;;;;79.32;22.58;;;;;;;-8.65;67.06;100750.16;5071326;28;20033;-65
2021/12/29 05:00:41;;;;;;;64.32;20.95;;;;;;;-8.75;67.04;100745.69;5072014;28;20045;-65
2021/12/29 05:03:07;;;;;;;67.55;20.65;;;;;;;-8.99;67.50;100726.31;5072192;28;20029;-65
2021/12/29 05:10:44;;;;;;;;;;;;;;;-8.67;67.81;100739.75;5070034;28;20028;-65
2021/12/29 05:13:09;;;;;;;73.93;20.42;;;;;;;-8.86;66.75;100716.97;5079259;28;19916;-66
2021/12/29 05:15:35;;;;;;;67.90;20.50;;;;;;;-8.78;67.50;100750.84;5082373;28;20033;-65
2021/12/29 05:18:01;;;;;;;77.93;23.95;;;;;;;-8.71;67.25;100756.13;5081623;28;20055;-66
2021/12/29 05:20:30;;;;;;;73.38;22.27;;;;;;;-8.76;66.79;100750.00;5083023;28;20025;-65
2021/12/29 05:22:58;;;;;;;76.18;24.75;;;;;;;-8.88;67.30;100748.13;5080001;28;20089;-67
2021/12/29 05:25:24;;;;;;;73.82;23.15;;;;;;;-8.96;67.98;100747.13;5073302;28;20446;-66
2021/12/29 05:27:50;;;;;;;71.80;23.10;;;;;;;-8.90;67.72;100752.41;5082132;28;20032;-65
2021/12/29 05:30:16;;;;;;;72.03;21.42;;;;;;;-8.89;68.03;100748.97;5072378;28;20028;-66
2021/12/29 05:32:42;;;;;;;66.18;21.50;;;;;;;-8.92;67.36;100738.56;5072872;28;20485;-65
2021/12/29 05:35:08;;;;;;;68.15;20.88;;;;;;;-8.92;67.98;100743.75;5071849;28;20029;-65
2021/12/29 05:37:34;;;;;;;64.00;18.15;;;;;;;-8.86;67.56;100748.13;5072367;28;20251;-65
2021/12/29 05:39:59;;;;;;;63.08;19.92;;;;;;;-8.89;67.00;100748.09;5075311;28;20469;-65
2021/12/29 05:42:25;;;;;;;64.95;20.15;;;;;;;-9.06;67.29;100735.72;5083299;28;20114;-66
2021/12/29 05:44:51;;;;;;;62.67;19.10;;;;;;;-9.03;67.23;100740.09;5075097;28;20101;-67
2021/12/29 05:47:16;;;;;;;65.60;19.35;;;;;;;-9.19;67.48;100734.69;5071976;28;20048;-66
2021/12/29 05:49:42;;;;;;;57.30;18.65;;;;;;;-9.13;67.44;100755.56;5075208;28;20552;-66
2021/12/29 05:52:07;;;;;;;59.30;20.05;;;;;;;-9.21;67.80;100748.50;5072041;28;20028;-66
2021/12/29 05:54:33;;;;;;;56.72;18.40;;;;;;;-9.27;67.90;100752.75;5072145;28;20029;-63
2021/12/29 05:56:59;;;;;;;57.78;18.40;;;;;;;-9.28;67.44;100758.78;5071951;28;20036;-65
2021/12/29 05:59:25;;;;;;;62.97;18.98;;;;;;;-9.39;68.35;100755.13;5071824;28;20048;-65
2021/12/29 06:01:50;;;;;;;65.32;20.00;;;;;;;-9.48;67.58;100731.66;5071758;28;20134;-65
2021/12/29 06:04:16;;;;;;;60.65;16.35;;;;;;;-9.35;68.00;100753.47;5071435;28;20065;-65
2021/12/29 06:06:42;;;;;;;78.68;20.63;;;;;;;-9.34;67.96;100753.47;5077418;28;20029;-64
2021/12/29 06:09:08;;;;;;;68.97;20.25;;;;;;;-9.42;68.15;100752.50;5080718;28;20033;-67
2021/12/29 06:11:33;;;;;;;59.72;19.20;;;;;;;-9.41;67.93;100751.66;5079252;28;20061;-67
2021/12/29 06:13:59;;;;;;;59.83;18.67;;;;;;;-9.44;68.36;100754.19;5079470;28;20112;-66
2021/12/29 06:16:25;;;;;;;50.90;15.00;;;;;;;-9.56;67.56;100719.41;5081265;28;20027;-65
2021/12/29 06:18:51;;;;;;;51.78;14.90;;;;;;;-9.38;67.49;100767.25;5074826;28;20036;-68
2021/12/29 06:21:16;;;;;;;49.88;17.35;;;;;;;-9.57;68.13;100755.72;5071153;28;20033;-69
2021/12/29 06:23:47;;;;;;;66.65;18.90;;;;;;;-9.57;68.33;100758.31;5070458;28;20105;-65
2021/12/29 06:26:13;;;;;;;56.35;18.73;;;;;;;-9.54;67.59;100755.75;5070753;28;20043;-66
2021/12/29 06:28:38;;;;;;;61.90;18.55;;;;;;;-9.61;68.12;100759.97;5071878;28;20032;-68
2021/12/29 06:31:04;;;;;;;58.65;18.35;;;;;;;-9.61;68.39;100762.56;5071469;28;20063;-68
2021/12/29 06:33:30;;;;;;;48.72;15.35;;;;;;;-9.54;67.34;100773.91;5070741;28;20024;-68
2021/12/29 06:35:55;;;;;;;31.30;10.88;;;;;;;-9.55;66.86;100766.97;5071099;28;20315;-68
2021/12/29 06:38:22;;;;;;;54.80;19.30;;;;;;;-9.55;66.63;100772.16;5071634;28;20458;-67
2021/12/29 06:40:47;;;;;;;47.25;16.58;;;;;;;-9.70;66.99;100768.44;5071285;28;20115;-68
2021/12/29 06:43:13;;;;;;;60.97;20.95;;;;;;;-9.81;67.14;100760.47;5054557;28;20119;-67
2021/12/29 06:45:38;;;;;;;49.80;16.63;;;;;;;-9.86;67.58;100769.03;5071398;28;20030;-64
2021/12/29 06:48:04;;;;;;;55.17;19.92;;;;;;;-9.87;67.26;100762.97;5071763;28;20044;-65
2021/12/29 06:50:30;;;;;;;62.17;19.45;;;;;;;-9.83;67.81;100766.50;5071127;28;20457;-68
2021/12/29 06:52:57;;;;;;;53.63;18.85;;;;;;;-9.86;67.82;100753.50;5070612;28;20509;-68
2021/12/29 06:55:22;;;;;;;54.92;19.25;;;;;;;-9.98;68.12;100734.28;5067898;28;20112;-65
2021/12/29 06:57:48;;;;;;;62.38;19.85;;;;;;;-9.70;67.94;100752.91;5069054;28;20385;-63
2021/12/29 07:00:14;;;;;;;60.40;20.45;;;;;;;-9.55;67.21;100756.59;5070270;28;20062;-63
2021/12/29 07:02:39;;;;;;;60.15;18.77;;;;;;;-9.44;66.81;100765.41;5070023;28;20032;-64
2021/12/29 07:05:05;;;;;;;55.90;17.75;;;;;;;-9.37;66.67;100761.22;5070655;28;20039;-64
2021/12/29 07:07:32;;;;;;;54.42;17.92;;;;;;;-9.32;66.66;100766.47;5071129;28;20103;-65
2021/12/29 07:09:58;;;;;;;48.33;17.13;;;;;;;-9.28;65.83;100766.56;5069883;28;20456;-71
2021/12/29 07:12:23;;;;;;;56.20;19.35;;;;;;;-9.34;65.57;100770.78;5070967;28;20108;-63
2021/12/29 07:14:49;;;;;;;58.22;19.73;;;;;;;-9.40;66.38;100769.84;5070371;28;20448;-65
2021/12/29 07:17:14;;;;;;;56.58;20.20;;;;;;;-9.46;66.48;100753.28;5070111;28;20033;-67
2021/12/29 07:19:40;;;;;;;60.55;21.08;;;;;;;-9.38;67.05;100768.13;5070624;28;20032;-66
2021/12/29 07:22:06;;;;;;;61.08;19.13;;;;;;;-9.24;66.99;100772.66;5070452;28;20056;-67
2021/12/29 07:24:33;;;;;;;68.65;21.83;;;;;;;-9.13;66.94;100767.63;5070054;28;20139;-67
2021/12/29 07:26:59;;;;;;;59.33;20.80;;;;;;;-9.07;67.10;100764.28;5070559;28;20098;-66
2021/12/29 07:29:25;;;;;;;58.63;19.17;;;;;;;-8.89;65.53;100761.94;5069250;28;20519;-66
2021/12/29 07:31:50;;;;;;;60.00;20.52;;;;;;;-8.85;64.91;100761.13;5069947;28;20028;-66
2021/12/29 07:34:16;;;;;;;59.33;19.38;;;;;;;-8.90;65.20;100759.31;5070268;28;20063;-66
2021/12/29 07:36:41;;;;;;;62.88;21.30;;;;;;;-8.97;65.35;100746.25;5070763;28;20529;-68
2021/12/29 07:39:11;;;;;;;61.30;19.75;;;;;;;-8.89;66.02;100751.56;5069600;28;20032;-66
2021/12/29 07:41:37;;;;;;;56.17;19.73;;;;;;;-8.72;65.54;100751.78;5070005;28;20024;-66
2021/12/29 07:44:04;;;;;;;60.63;21.45;;;;;;;-8.68;65.47;100750.09;5070461;28;20028;-67
2021/12/29 07:46:33;;;;;;;57.92;21.70;;;;;;;-8.57;64.74;100745.03;5070082;28;20036;-66
2021/12/29 07:49:00;;;;;;;54.75;19.77;;;;;;;-8.51;64.50;100748.59;5069619;28;20041;-69
2021/12/29 07:51:26;;;;;;;64.20;21.70;;;;;;;-8.70;64.01;100718.03;5070138;28;20044;-65
2021/12/29 07:53:51;;;;;;;60.90;21.20;;;;;;;-8.63;64.57;100748.44;5072622;28;20385;-66
2021/12/29 07:56:17;;;;;;;60.38;20.38;;;;;;;-8.56;65.51;100751.97;5079396;28;20025;-67
2021/12/29 07:58:43;;;;;;;65.03;22.83;;;;;;;-8.40;65.16;100737.44;5077538;28;20144;-69
2021/12/29 08:01:09;;;;;;;59.58;19.92;;;;;;;-8.15;63.88;100732.53;5077522;28;20056;-66
2021/12/29 08:03:36;;;;;;;69.07;24.63;;;;;;;-8.00;62.69;100731.81;5079535;28;20024;-65
2021/12/29 08:06:01;;;;;;;72.15;25.65;;;;;;;-7.97;63.52;100737.03;5075880;28;20484;-67
2021/12/29 08:08:27;;;;;;;81.32;25.48;;;;;;;-7.64;63.62;100728.69;5075805;28;20056;-67
2021/12/29 08:10:53;;;;;;;74.78;23.65;;;;;;;-7.31;62.38;100733.28;5078816;28;20539;-65
2021/12/29 08:13:18;;;;;;;73.00;23.88;;;;;;;-7.35;61.71;100733.25;5070440;28;20099;-64
2021/12/29 08:15:44;;;;;;;64.50;22.85;;;;;;;-7.40;62.17;100734.94;5069952;28;20032;-66
2021/12/29 08:18:10;;;;;;;66.32;22.90;;;;;;;-7.32;62.11;100727.22;5068961;28;20032;-66
2021/12/29 08:20:36;;;;;;;57.35;22.50;;;;;;;-7.14;60.96;100725.56;5070046;28;20028;-67
2021/12/29 08:23:04;;;;;;;58.55;21.23;;;;;;;-7.28;60.98;100715.06;5072693;28;20104;-66
2021/12/29 08:25:30;;;;;;;55.20;20.30;;;;;;;-7.64;61.37;100684.47;5077148;28;20060;-67
2021/12/29 08:27:56;;;;;;;54.60;17.75;;;;;;;-7.59;61.73;100710.53;5078409;28;20020;-68
2021/12/29 08:30:22;;;;;;;54.45;19.45;;;;;;;-7.80;61.89;100675.69;5080092;28;20374;-68
2021/12/29 08:32:48;;;;;;;54.60;19.40;;;;;;;-7.50;61.71;100717.50;5080864;28;20024;-69
2021/12/29 08:35:13;;;;;;;52.80;20.08;;;;;;;-7.42;61.80;100707.16;5083661;28;20040;-65
2021/12/29 08:37:39;;;;;;;53.88;18.85;;;;;;;-7.25;61.05;100702.97;5073484;28;20493;-69
2021/12/29 08:40:07;;;;;;;41.92;15.88;;;;;;;-7.12;60.79;100698.72;5077877;28;20177;-68
2021/12/29 08:42:34;;;;;;;48.30;19.15;;;;;;;-6.97;60.25;100707.47;5068676;28;20052;-68
2021/12/29 08:44:59;;;;;;;49.92;18.65;;;;;;;-6.88;60.57;100704.91;5069250;28;20075;-69
2021/12/29 08:47:25;;;;;;;46.42;16.65;;;;;;;-6.69;59.60;100692.84;5067616;28;20072;-67
2021/12/29 08:49:51;;;;;;;51.58;19.52;;;;;;;-6.62;59.52;100696.34;5069130;28;20049;-65
2021/12/29 08:52:16;;;;;;;58.38;19.35;;;;;;;-6.71;58.99;100698.94;5068070;28;20085;-68
2021/12/29 08:54:42;;;;;;;54.33;20.17;;;;;;;-6.94;60.40;100689.28;5069201;28;20036;-70
2021/12/29 08:57:07;;;;;;;49.30;16.95;;;;;;;-7.00;60.56;100691.81;5069437;28;20040;-68
2021/12/29 08:59:33;;;;;;;50.72;18.48;;;;;;;-6.98;59.99;100690.13;5072345;28;20094;-68
2021/12/29 09:01:59;;;;;;;51.40;18.10;;;;;;;-7.06;60.25;100688.31;5072855;28;20425;-68
2021/12/29 09:04:24;;;;;;;52.67;18.65;;;;;;;-7.23;60.26;100674.38;5071817;28;20063;-67
2021/12/29 09:06:52;;;;;;;53.92;18.67;;;;;;;-7.20;60.16;100684.78;5072740;28;20028;-68
2021/12/29 09:09:18;;;;;;;57.58;18.95;;;;;;;-7.26;60.07;100677.81;5071800;28;20028;-67
2021/12/29 09:11:44;;;;;;;45.13;16.90;;;;;;;-7.27;60.19;100680.38;5072432;28;20481;-68
2021/12/29 09:14:09;;;;;;;44.80;18.20;;;;;;;-7.31;60.14;100686.44;5072375;28;20104;-62
2021/12/29 09:16:34;;;;;;;47.20;17.23;;;;;;;-7.43;60.68;100671.59;5072756;28;20025;-67
2021/12/29 09:19:00;;;;;;;44.25;16.95;;;;;;;-7.51;60.51;100685.44;5072397;28;20024;-66
2021/12/29 09:21:28;;;;;;;48.78;17.45;;;;;;;-7.52;61.25;100675.00;5072626;28;20028;-67
2021/12/29 09:23:53;;;;;;;48.10;18.25;;;;;;;-7.45;60.81;100665.53;5068752;28;20131;-69
2021/12/29 09:26:19;;;;;;;55.25;20.08;;;;;;;-7.62;60.43;100623.81;5071718;28;20107;-71
2021/12/29 09:28:47;;;;;;;50.85;18.05;;;;;;;-7.32;60.06;100658.69;5071997;28;20052;-71
2021/12/29 09:31:14;;;;;;;57.45;20.15;;;;;;;-7.46;60.69;100656.88;5072052;28;20027;-67
2021/12/29 09:33:41;;;;;;;57.97;20.85;;;;;;;-7.56;60.79;100655.03;5072502;28;20072;-67
2021/12/29 09:36:07;;;;;;;60.17;22.00;;;;;;;-7.52;60.77;100662.00;5068677;28;20466;-74
2021/12/29 09:38:38;;;;;;;58.92;20.50;;;;;;;-7.51;60.69;100654.22;5072389;28;20174;-69
2021/12/29 09:41:07;;;;;;;52.60;17.75;;;;;;;-7.44;59.93;100664.66;5072067;28;20026;-70
2021/12/29 09:43:33;;;;;;;51.30;18.45;;;;;;;-7.70;61.15;100658.44;5071635;28;20032;-68
2021/12/29 09:45:58;;;;;;;60.30;20.05;;;;;;;-7.78;61.19;100650.56;5069259;28;20024;-67
2021/12/29 09:48:24;;;;;;;59.75;20.90;;;;;;;-7.92;61.86;100652.16;5072319;28;20064;-67
2021/12/29 09:50:51;;;;;;;53.28;18.67;;;;;;;-7.83;60.85;100648.78;5072440;28;20082;-66
2021/12/29 09:53:18;;;;;;;46.72;14.68;;;;;;;-7.89;61.29;100647.00;5070359;28;20397;-66
2021/12/29 09:55:45;;;;;;;60.22;22.42;;;;;;;-8.01;61.93;100632.16;5070898;28;20024;-65
2021/12/29 09:58:12;;;;;;;60.63;22.08;;;;;;;-7.93;62.04;100630.53;5072319;28;20036;-68
2021/12/29 10:00:46;;;;;;;64.82;21.35;;;;;;;-7.69;61.44;100638.50;5073230;28;20032;-71
2021/12/29 10:03:14;;;;;;;66.70;22.15;;;;;;;-7.56;60.48;100636.84;5071983;28;20462;-68
2021/12/29 10:05:43;;;;;;;75.75;24.52;;;;;;;-7.72;60.49;100628.91;5071806;28;20068;-65
2021/12/29 10:08:18;;;;;;;53.33;17.77;;;;;;;-7.76;60.60;100639.31;5072532;28;20024;-67
2021/12/29 10:10:48;;;;;;;64.30;21.73;;;;;;;-8.05;61.31;100622.59;5071515;28;20024;-65
2021/12/29 10:13:14;;;;;;;67.97;23.38;;;;;;;-8.05;61.03;100638.19;5055047;28;20052;-66
2021/12/29 10:15:59;;;;;;;60.75;21.25;;;;;;;-8.17;61.52;100620.78;5071894;28;20378;-66
2021/12/29 10:18:28;;;;;;;63.47;21.58;;;;;;;-8.31;61.92;100612.84;5071563;28;20478;-67
2021/12/29 10:20:57;;;;;;;54.90;16.55;;;;;;;-8.30;62.28;100619.78;5071666;28;20033;-67
2021/12/29 10:23:28;;;;;;;70.50;21.48;;;;;;;-8.29;62.05;100607.69;5070050;28;20046;-66
2021/12/29 10:25:56;;;;;;;62.55;20.67;;;;;;;-8.22;61.78;100593.88;5070406;28;20028;-66
2021/12/29 10:28:24;;;;;;;81.25;25.00;;;;;;;-8.26;62.05;100598.16;5071603;28;20042;-66
2021/12/29 10:31:06;;;;;;;64.05;20.67;;;;;;;-8.24;61.24;100583.47;5070217;28;20032;-67
2021/12/29 10:33:38;;;;;;;72.55;23.73;;;;;;;-8.28;61.70;100592.09;5071177;28;20090;-66
2021/12/29 10:36:21;;;;;;;48.25;18.25;;;;;;;-8.14;61.60;100597.41;5070816;28;20048;-67
2021/12/29 10:39:02;;;;;;;62.35;23.35;;;;;;;-8.27;61.45;100592.97;5071646;28;20466;-66
2021/12/29 10:41:29;;;;;;;66.10;21.70;;;;;;;-8.52;62.09;100572.84;5056292;28;20040;-66
2021/12/29 10:44:05;;;;;;;62.60;21.17;;;;;;;-8.41;62.51;100579.88;5070592;28;20033;-69
2021/12/29 10:46:33;;;;;;;64.47;21.70;;;;;;;-8.31;61.97;100579.06;5070939;28;20028;-69
2021/12/29 10:49:02;;;;;;;64.18;21.75;;;;;;;-8.34;61.89;100576.47;5070498;28;20502;-66
2021/12/29 10:51:35;;;;;;;65.05;21.85;;;;;;;-8.44;61.87;100561.63;5070874;28;20048;-66
2021/12/29 10:54:09;;;;;;;67.65;19.27;;;;;;;-8.45;62.52;100573.75;5070326;28;20067;-66
2021/12/29 10:56:36;;;;;;;70.43;22.63;;;;;;;-8.41;62.52;100567.72;5071147;28;20449;-66
2021/12/29 10:59:24;;;;;;;56.92;19.70;;;;;;;-8.30;61.62;100575.63;5070446;28;20043;-70
2021/12/29 11:01:51;;;;;;;67.47;22.42;;;;;;;-8.39;61.87;100570.34;5070719;28;20048;-69
2021/12/29 11:04:18;;;;;;;61.33;21.52;;;;;;;-8.48;62.24;100568.53;5071246;28;20154;-68
2021/12/29 11:06:47;;;;;;;66.43;21.45;;;;;;;-8.62;62.58;100539.88;5070616;28;20036;-68
2021/12/29 11:09:15;;;;;;;62.75;19.48;;;;;;;-8.61;62.87;100540.75;5070712;28;20047;-66
2021/12/29 11:11:46;;;;;;;46.55;12.65;;;;;;;-8.28;62.08;100563.50;5071062;28;20501;-69
2021/12/29 11:14:30;;;;;;;58.63;18.02;;;;;;;-8.16;61.67;100554.09;5070713;28;20036;-67